Time;durP1;ratioP1;P1;durP2;ratioP2;P2;SDS_P1;SDS_P2;PMS_P1;PMS_P2;Temp;Humidity;BMP_temperature;BMP_pressure;BME280_temperature;BME280_humidity;BME280_pressure;Samples;Min_cycle;Max_cycle;Signal;HPM_P1;HPM_P2
2021/04/07 00:00:20;;;;;;;2.33;2.10;;;5.70;43.20;;;;;;5030186;28;20038;-84
2021/04/07 00:03:39;;;;;;;2.80;2.30;;;5.60;43.10;;;;;;5029639;28;20072;-84
2021/04/07 00:06:28;;;;;;;1.80;1.70;;;5.50;43.00;;;;;;5013034;28;20508;-86
2021/04/07 00:10:18;;;;;;;4.18;2.30;;;5.50;43.10;;;;;;5041818;28;20065;-84
2021/04/07 00:12:47;;;;;;;2.65;2.45;;;5.40;43.10;;;;;;5020803;28;20091;-83
2021/04/07 00:15:25;;;;;;;2.42;1.80;;;5.40;43.10;;;;;;4991786;28;20030;-83
2021/04/07 00:18:02;;;;;;;3.03;2.22;;;5.40;43.30;;;;;;4960906;28;20057;-84
2021/04/07 00:21:09;;;;;;;4.07;1.88;;;5.30;43.10;;;;;;4961050;28;20038;-84
2021/04/07 00:24:21;;;;;;;4.43;1.80;;;5.30;43.30;;;;;;5010276;28;20132;-83
2021/04/07 00:26:48;;;;;;;2.92;1.80;;;5.20;43.00;;;;;;4991309;28;20210;-83
2021/04/07 00:29:26;;;;;;;2.50;2.05;;;5.20;43.10;;;;;;4986956;28;20075;-82
2021/04/07 00:32:40;;;;;;;1.70;1.60;;;5.20;43.20;;;;;;5012709;28;20037;-81
2021/04/07 00:35:38;;;;;;;2.40;2.17;;;5.10;43.00;;;;;;4994273;28;20030;-83
2021/04/07 00:39:30;;;;;;;2.20;2.00;;;5.10;43.00;;;;;;5010398;28;20034;-83
2021/04/07 00:43:24;;;;;;;3.08;2.30;;;5.00;42.90;;;;;;5008138;28;20651;-82
2021/04/07 00:46:43;;;;;;;2.20;2.00;;;5.00;42.90;;;;;;4991703;28;20040;-83
2021/04/07 00:49:53;;;;;;;2.38;1.83;;;4.90;42.80;;;;;;5008336;28;20640;-82
2021/04/07 00:52:22;;;;;;;2.20;2.08;;;4.90;42.80;;;;;;4975515;28;20505;-82
2021/04/07 00:55:17;;;;;;;2.05;1.83;;;4.80;42.70;;;;;;5007691;28;20132;-82
2021/04/07 00:57:49;;;;;;;2.60;1.88;;;4.70;42.60;;;;;;4991160;28;20034;-84
2021/04/07 01:09:14;;;;;;;2.22;1.90;;;4.60;42.70;;;;;;5009062;28;20370;-84
2021/04/07 01:22:22;;;;;;;2.10;1.90;;;4.40;42.40;;;;;;4986941;28;20034;-86
2021/04/07 01:26:42;;;;;;;2.15;1.95;;;4.40;42.40;;;;;;4947770;28;20051;-86
2021/04/07 01:30:57;;;;;;;2.28;2.03;;;4.30;42.30;;;;;;4941460;28;20046;-85
2021/04/07 01:35:07;;;;;;;2.13;1.92;;;4.30;42.40;;;;;;4929043;29;20158;-85
2021/04/07 01:39:00;;;;;;;2.20;2.00;;;4.20;42.30;;;;;;4911538;29;20040;-85
2021/04/07 01:43:34;;;;;;;1.70;1.60;;;4.10;42.20;;;;;;4933020;29;20531;-84
2021/04/07 01:47:53;;;;;;;2.67;1.95;;;4.00;42.10;;;;;;4949513;29;20102;-85
2021/04/07 01:54:57;;;;;;;3.97;1.90;;;4.00;42.10;;;;;;4954060;28;20362;-88
2021/04/07 01:57:24;;;;;;;1.88;1.73;;;4.00;42.00;;;;;;4970349;28;20046;-85
2021/04/07 01:59:50;;;;;;;2.13;1.75;;;3.90;42.00;;;;;;4954114;28;20058;-83
2021/04/07 02:02:42;;;;;;;1.70;1.60;;;3.90;42.10;;;;;;4970444;28;20047;-86
2021/04/07 02:05:10;;;;;;;2.22;1.80;;;3.90;42.30;;;;;;4954054;28;20070;-82
2021/04/07 02:07:37;;;;;;;2.20;2.00;;;3.90;42.30;;;;;;4969740;28;20039;-82
2021/04/07 02:10:07;;;;;;;1.83;1.73;;;3.90;42.40;;;;;;4970556;28;20041;-83
2021/04/07 02:12:34;;;;;;;1.85;1.73;;;3.90;42.50;;;;;;4969880;28;20034;-83
2021/04/07 02:15:04;;;;;;;2.85;2.33;;;3.90;42.50;;;;;;4954121;28;20033;-85
2021/04/07 02:17:31;;;;;;;1.80;1.70;;;3.80;42.40;;;;;;4953582;28;20043;-85
2021/04/07 02:19:57;;;;;;;2.58;2.25;;;3.80;42.50;;;;;;4970437;28;20086;-83
2021/04/07 02:22:23;;;;;;;2.78;1.88;;;3.80;42.50;;;;;;4970055;28;20126;-82
2021/04/07 02:24:49;;;;;;;2.17;1.70;;;3.80;42.60;;;;;;4973818;28;20031;-82
2021/04/07 02:27:19;;;;;;;3.97;1.92;;;3.80;42.70;;;;;;4997844;28;20029;-83
2021/04/07 02:29:49;;;;;;;2.70;1.88;;;3.70;42.50;;;;;;4997361;28;20022;-84
2021/04/07 02:32:16;;;;;;;2.60;2.10;;;3.70;42.60;;;;;;4982219;28;20392;-85
2021/04/07 02:34:51;;;;;;;2.00;1.80;;;3.70;42.60;;;;;;5014459;28;20037;-85
2021/04/07 02:37:31;;;;;;;3.10;1.95;;;3.70;42.70;;;;;;4998745;28;20030;-86
2021/04/07 02:40:03;;;;;;;2.40;1.80;;;3.70;42.80;;;;;;4969599;28;20481;-85
2021/04/07 02:42:42;;;;;;;2.08;1.90;;;3.60;42.60;;;;;;5001511;28;20060;-84
2021/04/07 02:45:33;;;;;;;2.28;2.03;;;3.60;42.60;;;;;;4982608;28;20025;-84
2021/04/07 02:48:00;;;;;;;4.15;1.98;;;3.60;42.70;;;;;;5014008;28;20025;-84
2021/04/07 02:50:53;;;;;;;2.10;1.73;;;3.60;42.70;;;;;;4998574;28;20042;-85
2021/04/07 02:53:44;;;;;;;2.42;2.03;;;3.60;42.80;;;;;;4981491;28;20037;-85
2021/04/07 02:56:10;;;;;;;3.78;1.80;;;3.60;42.90;;;;;;5013134;28;20124;-83
2021/04/07 02:58:38;;;;;;;2.53;1.92;;;3.60;42.70;;;;;;4997765;28;20037;-83
2021/04/07 03:01:05;;;;;;;2.17;1.85;;;3.60;42.80;;;;;;4997642;28;20030;-83
2021/04/07 03:03:31;;;;;;;2.47;2.28;;;3.60;42.80;;;;;;5013465;28;20075;-84
2021/04/07 03:06:00;;;;;;;3.85;2.33;;;3.60;43.30;;;;;;4999653;28;20116;-83
2021/04/07 03:08:26;;;;;;;3.15;1.80;;;3.60;42.80;;;;;;4968875;28;20044;-84
2021/04/07 03:10:52;;;;;;;1.80;1.70;;;3.60;42.80;;;;;;5001109;28;20021;-84
2021/04/07 03:13:23;;;;;;;3.10;2.13;;;3.50;42.70;;;;;;4984662;28;20044;-83
2021/04/07 03:15:49;;;;;;;1.77;1.67;;;3.50;42.70;;;;;;5000775;28;20060;-83
2021/04/07 03:19:00;;;;;;;3.65;2.25;;;3.40;42.50;;;;;;5000691;28;20512;-85
2021/04/07 03:22:33;;;;;;;2.05;1.85;;;3.40;42.70;;;;;;5034743;28;20049;-85
2021/04/07 03:25:33;;;;;;;1.70;1.60;;;3.40;42.60;;;;;;5034230;28;20548;-82
2021/04/07 03:28:03;;;;;;;3.03;2.05;;;3.40;42.60;;;;;;5018062;28;20042;-82
2021/04/07 03:30:50;;;;;;;2.33;2.03;;;3.40;42.60;;;;;;5017653;28;20538;-82
2021/04/07 03:33:20;;;;;;;3.40;1.67;;;3.30;42.60;;;;;;5000885;28;20044;-85
2021/04/07 03:35:51;;;;;;;2.03;1.77;;;3.30;42.60;;;;;;5016315;28;20033;-84
2021/04/07 03:38:18;;;;;;;2.10;1.90;;;3.30;42.70;;;;;;5015873;28;20037;-81
2021/04/07 03:40:48;;;;;;;2.63;1.98;;;3.30;42.70;;;;;;5016382;28;20033;-84
2021/04/07 03:43:16;;;;;;;2.13;1.83;;;3.20;42.50;;;;;;5016554;28;20041;-84
2021/04/07 03:45:43;;;;;;;1.70;1.60;;;3.20;42.60;;;;;;4983966;28;20091;-84
2021/04/07 03:48:12;;;;;;;1.90;1.60;;;3.20;42.70;;;;;;5016477;28;20617;-86
2021/04/07 03:51:08;;;;;;;1.98;1.65;;;3.20;42.70;;;;;;5006189;28;20045;-86
2021/04/07 03:54:45;;;;;;;1.95;1.85;;;3.10;42.50;;;;;;5007624;28;20488;-84
2021/04/07 03:57:56;;;;;;;1.40;1.30;;;3.10;42.50;;;;;;5034706;28;20029;-85
2021/04/07 04:00:36;;;;;;;2.53;2.08;;;3.10;42.50;;;;;;5033787;28;20029;-83
2021/04/07 04:03:04;;;;;;;3.30;1.80;;;3.10;42.40;;;;;;4968681;28;20045;-83
2021/04/07 04:05:31;;;;;;;1.73;1.63;;;3.00;42.30;;;;;;5015832;28;20132;-82
2021/04/07 04:07:57;;;;;;;3.00;2.05;;;3.00;42.30;;;;;;4999355;28;20037;-83
2021/04/07 04:10:23;;;;;;;2.13;1.92;;;3.00;42.40;;;;;;4999661;28;20065;-81
2021/04/07 04:12:49;;;;;;;1.88;1.67;;;3.00;42.50;;;;;;5015597;28;20025;-81
2021/04/07 04:15:16;;;;;;;1.73;1.60;;;2.90;42.30;;;;;;4999450;28;20036;-81
2021/04/07 04:17:44;;;;;;;4.25;2.25;;;2.90;42.40;;;;;;5015398;28;20045;-83
2021/04/07 04:20:11;;;;;;;2.28;1.80;;;2.90;42.40;;;;;;4999121;28;20079;-81
2021/04/07 04:22:38;;;;;;;3.15;2.00;;;2.90;42.50;;;;;;5015742;28;20507;-81
2021/04/07 04:25:07;;;;;;;1.80;1.70;;;2.80;42.40;;;;;;5015900;28;20477;-82
2021/04/07 04:27:43;;;;;;;1.90;1.63;;;2.80;42.40;;;;;;4999130;28;20291;-83
2021/04/07 04:30:13;;;;;;;3.22;1.85;;;2.80;42.50;;;;;;4983536;28;20041;-82
2021/04/07 04:32:45;;;;;;;1.60;1.50;;;2.80;42.50;;;;;;5032764;28;20047;-82
2021/04/07 04:35:12;;;;;;;2.13;1.90;;;2.80;42.60;;;;;;4999237;28;20032;-82
2021/04/07 04:37:40;;;;;;;1.95;1.85;;;2.80;42.50;;;;;;4983469;28;20029;-83
2021/04/07 04:40:11;;;;;;;4.30;2.25;;;2.80;42.60;;;;;;4983134;28;20540;-84
2021/04/07 04:42:37;;;;;;;1.83;1.73;;;2.80;42.60;;;;;;4983581;28;20393;-82
2021/04/07 04:45:27;;;;;;;2.53;1.90;;;2.90;42.70;;;;;;4999279;28;20705;-82
2021/04/07 04:47:54;;;;;;;2.20;2.00;;;2.80;42.60;;;;;;4992879;28;20389;-84
2021/04/07 04:50:22;;;;;;;2.45;1.67;;;2.80;42.50;;;;;;4993055;28;20053;-85
2021/04/07 04:53:18;;;;;;;1.65;1.55;;;2.80;42.60;;;;;;5009616;28;20038;-83
2021/04/07 04:55:45;;;;;;;2.40;1.90;;;2.90;42.70;;;;;;4992823;28;20075;-81
2021/04/07 04:58:11;;;;;;;2.85;1.80;;;2.90;42.70;;;;;;4983174;28;20033;-83
2021/04/07 05:00:39;;;;;;;1.70;1.60;;;2.90;42.70;;;;;;5011747;28;20124;-82
2021/04/07 05:03:06;;;;;;;2.22;1.60;;;2.90;42.70;;;;;;5017877;28;20038;-82
2021/04/07 05:10:01;;;;;;;1.92;1.73;;;2.90;42.90;;;;;;5001307;28;20037;-81
2021/04/07 05:12:31;;;;;;;2.85;1.50;;;3.00;42.80;;;;;;4991777;28;20160;-83
2021/04/07 05:14:57;;;;;;;2.00;1.60;;;3.00;42.80;;;;;;4988954;28;20046;-83
2021/04/07 05:17:28;;;;;;;2.20;1.67;;;3.00;42.90;;;;;;4991301;28;20041;-82
2021/04/07 05:19:56;;;;;;;3.03;1.38;;;3.00;42.90;;;;;;4988993;28;20045;-83
2021/04/07 05:22:23;;;;;;;2.17;1.77;;;3.00;42.90;;;;;;4993420;28;20091;-83
2021/04/07 05:25:39;;;;;;;1.77;1.67;;;3.00;42.90;;;;;;5010739;28;20029;-83
2021/04/07 05:28:09;;;;;;;2.90;1.95;;;3.10;43.10;;;;;;5009099;28;20452;-83
2021/04/07 05:34:34;;;;;;;1.67;1.50;;;3.10;43.00;;;;;;5036750;28;20072;-86
2021/04/07 05:41:30;;;;;;;2.15;1.73;;;3.10;42.90;;;;;;5008556;28;20409;-83
2021/04/07 05:44:01;;;;;;;2.13;1.60;;;3.10;42.70;;;;;;4992778;28;20042;-84
2021/04/07 05:46:28;;;;;;;3.50;1.90;;;3.10;42.80;;;;;;5027784;28;20034;-82
2021/04/07 05:48:54;;;;;;;3.05;2.30;;;3.20;43.00;;;;;;5009639;28;20469;-83
2021/04/07 06:01:06;;;;;;;1.95;1.70;;;3.30;43.20;;;;;;5019733;28;20045;-87
2021/04/07 06:08:40;;;;;;;3.90;2.00;;;3.40;43.30;;;;;;5022408;28;20033;-87
2021/04/07 06:11:06;;;;;;;3.13;2.17;;;3.40;43.30;;;;;;4990384;28;20404;-84
2021/04/07 06:13:33;;;;;;;2.00;1.60;;;3.40;43.40;;;;;;4995667;28;20037;-89
2021/04/07 06:17:03;;;;;;;3.28;1.88;;;3.50;43.80;;;;;;4945709;29;20038;-81
2021/04/07 06:20:08;;;;;;;2.85;1.65;;;3.60;44.00;;;;;;4930743;29;20130;-84
2021/04/07 06:22:35;;;;;;;2.42;2.22;;;3.60;44.30;;;;;;5003009;28;20052;-84
2021/04/07 06:25:49;;;;;;;3.55;2.10;;;3.70;44.40;;;;;;5010509;28;20037;-83
2021/04/07 06:50:53;;;;;;;2.75;2.08;;;4.10;45.20;;;;;;5014076;28;20041;-85
2021/04/07 06:54:36;;;;;;;3.25;2.38;;;4.10;45.10;;;;;;4998850;28;20041;-86
2021/04/07 06:58:07;;;;;;;;;;;4.20;45.50;;;;;;5012916;28;20412;-87
2021/04/07 07:02:01;;;;;;;2.95;2.20;;;4.30;45.40;;;;;;4971797;28;19937;-84
2021/04/07 07:05:23;;;;;;;3.33;1.98;;;4.40;45.60;;;;;;4955614;28;20074;-86
2021/04/07 07:09:50;;;;;;;4.57;2.50;;;4.50;45.90;;;;;;4963228;28;20043;-85
2021/04/07 07:13:18;;;;;;;3.97;2.30;;;4.50;45.80;;;;;;4956186;28;20035;-85
2021/04/07 07:16:26;;;;;;;5.00;2.20;;;4.60;46.10;;;;;;4956690;28;20041;-83
2021/04/07 07:19:21;;;;;;;4.50;2.35;;;4.70;46.40;;;;;;4957990;28;20051;-85
2021/04/07 07:23:15;;;;;;;4.28;2.70;;;4.80;46.60;;;;;;4958196;28;20051;-84
2021/04/07 07:26:40;;;;;;;3.97;2.37;;;4.80;46.60;;;;;;4970445;28;20062;-83
2021/04/07 07:29:22;;;;;;;2.85;2.17;;;4.90;46.80;;;;;;4944316;28;20038;-84
2021/04/07 07:32:05;;;;;;;6.53;2.80;;;5.00;47.00;;;;;;4982963;28;20073;-85
2021/04/07 07:34:41;;;;;;;4.15;2.53;;;5.10;47.40;;;;;;5007834;28;20052;-83
2021/04/07 07:37:08;;;;;;;8.15;2.42;;;5.10;47.30;;;;;;4995476;28;20041;-82
2021/04/07 07:39:36;;;;;;;5.07;2.20;;;5.20;47.60;;;;;;5026880;28;20129;-82
2021/04/07 07:42:09;;;;;;;5.20;2.47;;;5.20;47.70;;;;;;4997914;28;20041;-83
2021/04/07 07:44:37;;;;;;;8.75;3.15;;;5.30;48.00;;;;;;5011334;28;20641;-83
2021/04/07 07:47:48;;;;;;;3.25;2.40;;;5.30;48.00;;;;;;5013372;28;20060;-83
2021/04/07 07:50:02;;;;;;;4.93;3.13;;;5.40;48.20;;;;;;5003856;28;20037;-83
2021/04/07 07:52:34;;;;;;;5.88;3.00;;;5.40;48.20;;;;;;5013043;28;20042;-83
2021/04/07 07:55:16;;;;;;;2.95;2.30;;;5.60;48.70;;;;;;4996706;28;20033;-82
2021/04/07 07:58:14;;;;;;;3.30;2.45;;;5.60;48.80;;;;;;5013870;28;20038;-86
2021/04/07 08:00:41;;;;;;;4.70;2.58;;;5.70;48.90;;;;;;5015954;28;20034;-83
2021/04/07 08:03:14;;;;;;;5.82;2.38;;;5.80;49.00;;;;;;5015945;28;20416;-86
2021/04/07 08:06:09;;;;;;;2.90;2.40;;;5.90;49.20;;;;;;4998573;28;20127;-86
2021/04/07 08:09:52;;;;;;;5.20;2.95;;;6.00;49.40;;;;;;5031825;28;20064;-85
2021/04/07 08:20:51;;;;;;;5.72;2.47;;;6.40;49.60;;;;;;5012823;28;20026;-83
2021/04/07 08:23:49;;;;;;;3.55;2.53;;;6.60;49.70;;;;;;5006713;28;20436;-88
2021/04/07 08:26:24;;;;;;;5.75;2.42;;;6.70;50.00;;;;;;5014602;28;20501;-84
2021/04/07 08:28:57;;;;;;;4.88;2.67;;;6.80;50.10;;;;;;4999257;28;20200;-85
2021/04/07 08:31:27;;;;;;;3.88;2.40;;;6.90;50.30;;;;;;5014681;28;20505;-86
2021/04/07 08:33:57;;;;;;;6.28;2.55;;;7.00;50.50;;;;;;5015882;28;20030;-81
2021/04/07 08:36:28;;;;;;;2.55;1.90;;;7.20;50.80;;;;;;4996587;28;20061;-86
2021/04/07 08:39:10;;;;;;;4.10;2.45;;;7.30;51.00;;;;;;5014551;28;20033;-87
2021/04/07 08:41:37;;;;;;;3.40;2.15;;;7.40;51.10;;;;;;5012691;28;20129;-85
2021/04/07 08:44:24;;;;;;;5.65;2.10;;;7.50;51.20;;;;;;4996737;28;20057;-85
2021/04/07 08:47:04;;;;;;;4.63;2.25;;;7.70;51.50;;;;;;5012721;28;20530;-84
2021/04/07 08:50:06;;;;;;;7.85;2.63;;;7.90;51.80;;;;;;5013022;28;20030;-84
2021/04/07 09:10:48;;;;;;;4.88;2.53;;;9.00;51.80;;;;;;4988859;28;20046;-86
2021/04/07 10:11:53;;;;;;;2.50;1.80;;;11.50;51.60;;;;;;4991699;28;20029;-84
2021/04/07 10:18:32;;;;;;;2.83;1.90;;;11.70;51.50;;;;;;4989849;28;20417;-86
2021/04/07 10:54:36;;;;;;;5.90;2.03;;;12.80;50.80;;;;;;4992499;28;20037;-86
2021/04/07 10:57:12;;;;;;;2.00;1.40;;;12.90;50.70;;;;;;4994280;28;20072;-83
2021/04/07 10:59:39;;;;;;;3.55;1.65;;;13.00;50.70;;;;;;4957096;28;20461;-84
2021/04/07 11:02:14;;;;;;;4.03;1.83;;;13.10;50.60;;;;;;4987778;28;20149;-83
2021/04/07 11:04:41;;;;;;;5.45;2.10;;;13.10;50.10;;;;;;4972830;28;20046;-84
2021/04/07 11:07:12;;;;;;;3.20;1.80;;;13.20;50.20;;;;;;4988388;28;20038;-82
2021/04/07 11:09:51;;;;;;;3.80;1.70;;;13.20;49.80;;;;;;4988024;28;20033;-82
2021/04/07 11:12:21;;;;;;;3.22;1.55;;;13.30;49.70;;;;;;4994467;28;20042;-83
2021/04/07 11:14:52;;;;;;;3.78;1.90;;;13.30;49.70;;;;;;5029850;28;20022;-84
2021/04/07 11:17:19;;;;;;;2.72;1.95;;;13.30;49.50;;;;;;4999400;28;20539;-83
2021/04/07 11:19:47;;;;;;;3.92;2.03;;;13.30;49.40;;;;;;5010677;28;20429;-83
2021/04/07 11:22:13;;;;;;;5.20;1.63;;;13.30;49.30;;;;;;4977326;28;20048;-87
2021/04/07 11:24:41;;;;;;;3.40;1.65;;;13.30;49.10;;;;;;4974055;28;20077;-85
2021/04/07 11:27:17;;;;;;;3.47;2.15;;;13.30;49.00;;;;;;4973187;28;20513;-88
2021/04/07 11:29:45;;;;;;;4.28;1.70;;;13.30;48.80;;;;;;4991113;28;20034;-85
2021/04/07 11:32:11;;;;;;;2.92;1.63;;;13.30;48.80;;;;;;4976750;28;20469;-87
2021/04/07 11:34:48;;;;;;;4.25;1.70;;;13.40;48.90;;;;;;4993896;28;20166;-82
2021/04/07 11:37:24;;;;;;;4.63;2.33;;;13.40;48.80;;;;;;4977559;28;20030;-86
2021/04/07 11:40:01;;;;;;;2.95;1.80;;;13.40;48.60;;;;;;5010878;28;20476;-85
2021/04/07 11:42:43;;;;;;;4.18;1.80;;;13.50;48.60;;;;;;5028329;28;20424;-82
2021/04/07 11:45:10;;;;;;;4.18;1.83;;;13.60;48.70;;;;;;5030415;28;20029;-85
2021/04/07 11:47:36;;;;;;;5.07;2.17;;;13.60;48.50;;;;;;5000065;28;20033;-87
2021/04/07 11:50:25;;;;;;;3.63;2.47;;;13.60;48.30;;;;;;5013139;28;20124;-87
2021/04/07 11:53:09;;;;;;;2.45;1.83;;;13.60;48.10;;;;;;5013613;28;20034;-86
2021/04/07 11:55:38;;;;;;;2.53;1.70;;;13.70;48.30;;;;;;5013002;28;20038;-84
2021/04/07 11:58:28;;;;;;;3.65;2.03;;;13.70;48.10;;;;;;5012423;28;20500;-84
2021/04/07 12:00:57;;;;;;;2.10;1.70;;;13.80;48.20;;;;;;5012853;28;20125;-86
2021/04/07 12:03:28;;;;;;;5.00;2.05;;;13.80;48.00;;;;;;4997920;28;20068;-86
2021/04/07 12:05:56;;;;;;;5.28;2.30;;;13.80;47.90;;;;;;4996733;28;20243;-83
2021/04/07 12:08:22;;;;;;;3.33;2.00;;;13.80;47.80;;;;;;5030503;28;20040;-83
2021/04/07 12:10:49;;;;;;;2.90;2.00;;;13.90;47.80;;;;;;5014134;28;20029;-85
2021/04/07 12:13:16;;;;;;;4.88;2.00;;;14.00;47.70;;;;;;4998664;28;20034;-85
2021/04/07 12:16:48;;;;;;;3.53;1.85;;;14.10;47.70;;;;;;5014490;28;20037;-84
2021/04/07 12:19:18;;;;;;;3.22;2.00;;;14.20;47.60;;;;;;5014712;28;20051;-86
2021/04/07 12:21:44;;;;;;;4.90;1.90;;;14.20;47.60;;;;;;5014215;28;20053;-85
2021/04/07 12:24:10;;;;;;;2.45;1.83;;;14.30;47.80;;;;;;5012691;28;20045;-85
2021/04/07 12:26:36;;;;;;;2.60;1.75;;;14.30;47.50;;;;;;5013098;28;20051;-86
2021/04/07 12:29:03;;;;;;;3.97;2.08;;;14.40;47.60;;;;;;5029573;28;20048;-84
2021/04/07 12:31:29;;;;;;;3.53;2.03;;;14.50;47.60;;;;;;5029980;28;20030;-84
2021/04/07 12:33:57;;;;;;;3.78;1.85;;;14.50;47.50;;;;;;4979511;28;20036;-86
2021/04/07 12:36:29;;;;;;;2.33;1.85;;;14.60;47.60;;;;;;4995744;28;20076;-87
2021/04/07 12:38:56;;;;;;;3.78;1.75;;;14.70;47.50;;;;;;5003366;28;20068;-86
2021/04/07 12:41:31;;;;;;;5.45;1.70;;;14.70;47.30;;;;;;4979127;28;20037;-87
2021/04/07 12:43:58;;;;;;;3.70;1.88;;;14.80;47.40;;;;;;4994440;28;20066;-86
2021/04/07 12:46:24;;;;;;;2.80;2.17;;;14.90;47.40;;;;;;5012539;28;20064;-82
2021/04/07 12:48:51;;;;;;;5.63;1.73;;;14.90;47.30;;;;;;5001955;28;20838;-82
2021/04/07 12:51:22;;;;;;;3.53;1.83;;;14.90;47.20;;;;;;4996545;28;20033;-81
2021/04/07 12:53:48;;;;;;;11.38;2.78;;;14.90;47.10;;;;;;5010404;28;20041;-87
2021/04/07 12:56:16;;;;;;;14.77;3.40;;;14.80;46.10;;;;;;5010151;28;20188;-81
2021/04/07 12:58:47;;;;;;;9.57;2.47;;;14.70;45.90;;;;;;5026855;28;20033;-79
2021/04/07 13:01:13;;;;;;;5.90;2.30;;;14.60;45.80;;;;;;5029427;28;20049;-83
2021/04/07 13:03:40;;;;;;;5.25;2.50;;;14.60;46.00;;;;;;5014076;28;20029;-83
2021/04/07 13:06:06;;;;;;;6.20;2.38;;;14.60;46.00;;;;;;5012744;28;20095;-84
2021/04/07 13:08:32;;;;;;;9.07;2.65;;;14.60;46.00;;;;;;5029483;28;20029;-87
2021/04/07 13:10:58;;;;;;;5.10;2.15;;;14.60;46.00;;;;;;5011982;28;20033;-82
2021/04/07 13:13:24;;;;;;;6.30;2.33;;;14.60;45.90;;;;;;5011508;28;20029;-82
2021/04/07 13:15:51;;;;;;;4.28;2.33;;;14.60;45.80;;;;;;5010353;28;20461;-84
2021/04/07 13:18:18;;;;;;;7.50;2.88;;;14.60;45.80;;;;;;5009504;28;20030;-84
2021/04/07 13:20:44;;;;;;;5.05;2.03;;;14.60;45.70;;;;;;5007937;28;20036;-82
2021/04/07 13:23:11;;;;;;;4.78;2.28;;;14.60;45.70;;;;;;4999588;28;20038;-89
2021/04/07 13:25:43;;;;;;;4.50;2.65;;;14.60;45.60;;;;;;5012948;28;20124;-82
2021/04/07 13:28:59;;;;;;;6.38;2.35;;;14.60;45.50;;;;;;5009326;28;20156;-86
2021/04/07 13:33:12;;;;;;;3.13;2.22;;;14.50;45.30;;;;;;4972140;28;20049;-86
2021/04/07 13:36:23;;;;;;;8.73;2.50;;;14.50;45.40;;;;;;4973264;28;20038;-86
2021/04/07 13:44:20;;;;;;;5.93;2.30;;;14.40;45.40;;;;;;4986585;28;20050;-85
2021/04/07 14:23:15;;;;;;;5.40;2.10;;;15.00;46.30;;;;;;5029507;28;20166;-85
2021/04/07 14:25:41;;;;;;;2.60;2.03;;;15.20;46.30;;;;;;5011943;28;20528;-85
2021/04/07 14:28:07;;;;;;;2.47;1.83;;;15.20;46.30;;;;;;5010947;28;20326;-85
2021/04/07 14:30:42;;;;;;;3.92;2.22;;;15.30;46.30;;;;;;4994770;28;20033;-84
2021/04/07 14:33:13;;;;;;;4.60;2.20;;;15.30;46.10;;;;;;5010068;28;20465;-84
2021/04/07 14:35:40;;;;;;;5.50;1.83;;;15.40;46.20;;;;;;5011914;28;20034;-85
2021/04/07 14:38:06;;;;;;;2.97;1.50;;;15.40;46.20;;;;;;5010899;28;20033;-85
2021/04/07 14:53:44;;;;;;;3.53;2.08;;;15.50;46.20;;;;;;4948379;29;20186;-84
2021/04/07 14:56:15;;;;;;;2.22;1.65;;;15.60;46.40;;;;;;4998647;28;20056;-83
2021/04/07 14:58:41;;;;;;;5.03;1.90;;;15.70;46.30;;;;;;5003767;28;20040;-84
2021/04/07 15:01:07;;;;;;;3.10;1.55;;;15.70;46.30;;;;;;5008575;28;20033;-82
2021/04/07 15:03:33;;;;;;;3.90;1.95;;;15.70;46.10;;;;;;5005790;28;20045;-84
2021/04/07 15:05:59;;;;;;;3.25;1.88;;;15.70;45.90;;;;;;5014719;28;20060;-80
2021/04/07 15:08:25;;;;;;;5.40;1.75;;;15.70;45.70;;;;;;5013496;28;20029;-82
2021/04/07 15:10:51;;;;;;;3.80;2.08;;;15.60;44.60;;;;;;5013249;28;20432;-80
2021/04/07 15:13:17;;;;;;;3.67;2.03;;;15.40;43.50;;;;;;5012874;28;20037;-80
2021/04/07 15:15:42;;;;;;;4.43;2.30;;;15.20;42.70;;;;;;4995040;28;20609;-79
2021/04/07 15:18:10;;;;;;;8.63;2.40;;;14.90;41.90;;;;;;4994642;28;20076;-80
2021/04/07 15:20:37;;;;;;;6.55;2.67;;;14.60;41.00;;;;;;5023285;28;20129;-80
2021/04/07 15:23:03;;;;;;;4.03;2.55;;;14.40;40.60;;;;;;5013651;28;20049;-81
2021/04/07 15:25:32;;;;;;;6.63;2.47;;;14.20;40.10;;;;;;4980047;28;20029;-81
2021/04/07 15:30:25;;;;;;;11.07;2.70;;;13.80;39.20;;;;;;5028326;28;20196;-82
2021/04/07 15:32:53;;;;;;;6.10;2.10;;;13.70;39.30;;;;;;4991597;28;20481;-82
2021/04/07 15:35:22;;;;;;;5.60;1.98;;;13.70;39.30;;;;;;5011217;28;20037;-82
2021/04/07 15:37:52;;;;;;;5.30;1.95;;;13.60;39.00;;;;;;5029686;28;20386;-81
2021/04/07 15:40:18;;;;;;;5.50;2.22;;;13.60;39.00;;;;;;5013101;28;20021;-80
2021/04/07 15:42:45;;;;;;;4.80;2.20;;;13.60;39.00;;;;;;4996433;28;20095;-82
2021/04/07 15:45:12;;;;;;;5.53;1.95;;;13.60;38.90;;;;;;5016077;28;20041;-84
2021/04/07 15:47:38;;;;;;;6.07;2.35;;;13.60;38.90;;;;;;5016524;28;20033;-86
2021/04/07 15:50:05;;;;;;;7.75;2.40;;;13.50;38.70;;;;;;5015735;28;20067;-82
2021/04/07 15:52:32;;;;;;;4.20;2.05;;;13.50;38.70;;;;;;4996754;28;20064;-86
2021/04/07 15:54:58;;;;;;;3.55;2.10;;;13.50;38.80;;;;;;5002203;28;20045;-86
2021/04/07 15:57:47;;;;;;;2.90;1.90;;;13.50;38.80;;;;;;5006108;28;20033;-84
2021/04/07 16:00:18;;;;;;;4.75;1.98;;;13.40;38.70;;;;;;5027378;28;20370;-85
2021/04/07 16:03:44;;;;;;;3.65;1.90;;;13.40;38.70;;;;;;5014332;28;20064;-90
2021/04/07 16:15:27;;;;;;;3.35;2.00;;;13.50;39.20;;;;;;4977880;28;20050;-83
2021/04/07 16:17:54;;;;;;;3.25;1.83;;;13.40;39.30;;;;;;4973366;28;20043;-82
2021/04/07 16:20:22;;;;;;;2.72;1.70;;;13.40;39.30;;;;;;4972751;28;20026;-84
2021/04/07 16:22:49;;;;;;;3.72;2.08;;;13.30;39.20;;;;;;4977543;28;20065;-83
2021/04/07 16:25:15;;;;;;;2.42;1.60;;;13.30;39.30;;;;;;5006274;28;20038;-83
2021/04/07 16:27:43;;;;;;;4.03;2.10;;;13.30;39.40;;;;;;5006544;28;20040;-83
2021/04/07 16:30:14;;;;;;;3.17;1.83;;;13.20;39.30;;;;;;4972976;28;20030;-83
2021/04/07 16:32:40;;;;;;;4.65;2.15;;;13.30;39.50;;;;;;4967959;28;20592;-84
2021/04/07 16:35:10;;;;;;;2.85;2.08;;;13.20;39.40;;;;;;4963100;28;20501;-85
2021/04/07 16:37:46;;;;;;;4.47;2.05;;;13.20;39.60;;;;;;4968748;28;20445;-89
2021/04/07 16:40:14;;;;;;;3.17;2.05;;;13.20;39.70;;;;;;4972578;28;20030;-84
2021/04/07 16:42:40;;;;;;;2.70;1.70;;;13.10;39.60;;;;;;4992928;28;20089;-82
2021/04/07 16:45:08;;;;;;;4.18;2.45;;;13.10;39.70;;;;;;5030228;28;20061;-81
2021/04/07 16:47:34;;;;;;;3.40;1.58;;;13.00;40.00;;;;;;5008968;28;20116;-81
2021/04/07 16:50:02;;;;;;;4.70;2.00;;;13.10;40.80;;;;;;4998737;28;20045;-78
2021/04/07 16:52:28;;;;;;;3.78;1.90;;;13.20;41.50;;;;;;5009063;28;20029;-82
2021/04/07 16:54:54;;;;;;;4.63;2.47;;;13.20;41.90;;;;;;4995905;28;20067;-83
2021/04/07 16:57:20;;;;;;;5.68;2.35;;;13.30;42.20;;;;;;5013585;28;20075;-84
2021/04/07 16:59:46;;;;;;;4.80;2.40;;;13.30;42.30;;;;;;5006940;28;20112;-85
2021/04/07 17:02:13;;;;;;;3.95;1.80;;;13.30;42.30;;;;;;5008365;28;20041;-83
2021/04/07 17:04:39;;;;;;;2.40;1.83;;;13.30;42.30;;;;;;4997194;28;20616;-82
2021/04/07 17:07:05;;;;;;;5.13;2.47;;;13.30;42.30;;;;;;5025909;28;20129;-83
2021/04/07 17:09:33;;;;;;;5.10;2.53;;;13.30;42.40;;;;;;5015095;28;20148;-84
2021/04/07 17:11:59;;;;;;;3.42;2.00;;;13.20;42.30;;;;;;5026396;28;20033;-82
2021/04/07 17:14:30;;;;;;;4.53;2.08;;;13.20;42.30;;;;;;5043047;28;20430;-83
2021/04/07 17:16:56;;;;;;;2.92;2.00;;;13.20;42.40;;;;;;5044857;28;20032;-83
2021/04/07 17:19:22;;;;;;;3.13;2.03;;;13.10;42.20;;;;;;5018821;28;20025;-82
2021/04/07 17:21:48;;;;;;;2.55;2.00;;;13.10;42.30;;;;;;5011616;28;20052;-82
2021/04/07 17:24:14;;;;;;;6.20;2.15;;;13.10;42.30;;;;;;4977192;28;20115;-81
2021/04/07 17:26:40;;;;;;;3.35;1.73;;;13.10;42.30;;;;;;5012090;28;20075;-82
2021/04/07 17:29:08;;;;;;;2.03;1.83;;;13.00;42.20;;;;;;5011474;28;20037;-82
2021/04/07 17:31:35;;;;;;;2.67;1.85;;;13.00;42.20;;;;;;4995738;28;20039;-82
2021/04/07 17:34:01;;;;;;;3.92;2.08;;;13.00;42.20;;;;;;4994040;28;20072;-83
2021/04/07 17:36:27;;;;;;;3.45;1.90;;;12.90;42.10;;;;;;5010550;28;20034;-82
2021/04/07 17:38:53;;;;;;;2.65;1.80;;;12.90;42.10;;;;;;4995193;28;20026;-81
2021/04/07 17:41:20;;;;;;;2.15;1.85;;;12.90;42.20;;;;;;5027127;28;20037;-82
2021/04/07 17:43:49;;;;;;;4.40;2.22;;;12.80;42.10;;;;;;5039544;28;20044;-76
2021/04/07 17:46:16;;;;;;;4.13;2.20;;;12.80;42.10;;;;;;5031440;28;20169;-81
2021/04/07 17:48:42;;;;;;;5.97;1.85;;;12.70;42.30;;;;;;5028318;28;20500;-80
2021/04/07 17:51:08;;;;;;;4.88;2.30;;;12.80;43.00;;;;;;4994961;28;20124;-81
2021/04/07 17:53:35;;;;;;;2.60;1.65;;;12.80;43.50;;;;;;5025252;28;20339;-80
2021/04/07 17:56:01;;;;;;;2.60;1.92;;;12.90;43.80;;;;;;5006776;28;20057;-81
2021/04/07 17:58:28;;;;;;;2.33;1.60;;;13.00;44.20;;;;;;4994791;28;20298;-80
2021/04/07 18:00:54;;;;;;;4.28;2.33;;;13.10;44.40;;;;;;5010219;28;20060;-80
2021/04/07 18:03:20;;;;;;;4.30;1.52;;;13.20;44.70;;;;;;5005460;28;20129;-83
2021/04/07 18:05:46;;;;;;;6.72;1.80;;;13.30;44.90;;;;;;5001963;28;20487;-77
2021/04/07 18:08:12;;;;;;;2.58;1.80;;;13.30;45.00;;;;;;5027294;28;20072;-77
2021/04/07 18:10:39;;;;;;;4.15;1.95;;;13.30;45.10;;;;;;5003256;28;20472;-77
2021/04/07 18:13:05;;;;;;;7.13;2.55;;;13.40;45.40;;;;;;5000037;28;20038;-77
2021/04/07 18:15:33;;;;;;;3.20;1.80;;;13.40;45.50;;;;;;5016397;28;20245;-77